createdAt,value
2017-06-25T00:01:36.380Z,65.84
2017-06-25T00:04:06.971Z,65.68
2017-06-25T00:06:37.624Z,65.37
2017-06-25T00:09:07.440Z,65.67
2017-06-25T00:11:38.062Z,65.79
2017-06-25T00:14:07.789Z,65.97
2017-06-25T00:16:37.514Z,66.14
2017-06-25T00:19:07.252Z,65.78
2017-06-25T00:21:36.958Z,66.06
2017-06-25T00:24:06.710Z,65.95
2017-06-25T00:26:36.503Z,65.75
2017-06-25T00:29:06.628Z,65.61
2017-06-25T00:31:36.307Z,66.16
2017-06-25T00:34:06.083Z,66.39
2017-06-25T00:36:35.809Z,66.11
2017-06-25T00:39:04.789Z,66.64
2017-06-25T00:41:34.552Z,67.02
2017-06-25T00:44:04.267Z,67.42
2017-06-25T00:46:33.983Z,67.71
2017-06-25T00:49:03.666Z,67.60
2017-06-25T00:51:33.470Z,67.41
2017-06-25T00:54:08.590Z,67.89
2017-06-25T00:56:38.363Z,68.12
2017-06-25T00:59:08.105Z,68.18
2017-06-25T01:01:37.823Z,68.34
2017-06-25T01:04:07.601Z,67.80
2017-06-25T01:06:37.299Z,67.71
2017-06-25T01:09:07.043Z,67.62
2017-06-25T01:11:36.802Z,67.83
2017-06-25T01:14:06.523Z,67.45
2017-06-25T01:16:36.257Z,67.84
2017-06-25T01:19:05.966Z,68.08
2017-06-25T01:21:35.687Z,68.03
2017-06-25T01:24:05.398Z,68.05
2017-06-25T01:26:35.151Z,67.97
2017-06-25T01:29:04.834Z,68.26
2017-06-25T01:31:34.523Z,68.50
2017-06-25T01:34:04.288Z,68.67
2017-06-25T01:36:33.971Z,68.44
2017-06-25T01:39:03.335Z,68.93
2017-06-25T01:41:33.898Z,68.82
2017-06-25T01:44:03.314Z,68.64
2017-06-25T01:46:32.648Z,68.49
2017-06-25T01:49:02.358Z,68.38
2017-06-25T01:51:32.069Z,68.51
2017-06-25T01:54:01.765Z,68.56
2017-06-25T01:56:32.316Z,69.04
2017-06-25T01:59:02.541Z,68.73
2017-06-25T02:01:32.291Z,68.81
2017-06-25T02:04:01.999Z,68.62
2017-06-25T02:06:31.733Z,69.31
2017-06-25T02:09:01.463Z,69.42
2017-06-25T02:11:34.160Z,69.83
2017-06-25T02:14:03.905Z,69.95
2017-06-25T02:16:33.624Z,69.96
2017-06-25T02:19:03.380Z,69.84
2017-06-25T02:21:33.984Z,70.14
2017-06-25T02:24:03.725Z,70.83
2017-06-25T02:26:33.458Z,71.44
2017-06-25T02:29:03.181Z,71.68
2017-06-25T02:31:32.890Z,72.04
2017-06-25T02:34:02.596Z,71.77
2017-06-25T02:36:32.342Z,71.83
2017-06-25T02:39:02.067Z,71.51
2017-06-25T02:41:31.776Z,72.29
2017-06-25T02:44:01.551Z,72.88
2017-06-25T02:46:31.349Z,72.77
2017-06-25T02:49:01.071Z,72.77
2017-06-25T02:51:30.808Z,72.49
2017-06-25T02:54:00.562Z,71.92
2017-06-25T02:56:30.322Z,72.19
2017-06-25T02:59:00.016Z,72.32
2017-06-25T03:01:29.749Z,72.71
2017-06-25T03:03:59.479Z,72.28
2017-06-25T03:06:29.202Z,72.38
2017-06-25T03:08:58.172Z,73.06
2017-06-25T03:11:27.936Z,72.55
2017-06-25T03:13:58.850Z,72.51
2017-06-25T03:16:28.592Z,73.21
2017-06-25T03:18:58.313Z,73.64
2017-06-25T03:21:28.079Z,75.15
2017-06-25T03:23:57.814Z,75.55
2017-06-25T03:26:26.795Z,76.17
2017-06-25T03:28:56.558Z,75.99
2017-06-25T03:31:26.261Z,75.86
2017-06-25T03:33:55.981Z,74.73
2017-06-25T03:36:25.673Z,75.73
2017-06-25T03:38:55.429Z,75.78
2017-06-25T03:41:25.141Z,75.41
2017-06-25T03:43:54.843Z,75.28
2017-06-25T03:46:24.601Z,76.20
2017-06-25T03:48:54.339Z,76.93
2017-06-25T03:51:24.055Z,76.33
2017-06-25T03:53:53.780Z,75.20
2017-06-25T03:56:23.537Z,75.72
2017-06-25T03:58:53.294Z,75.49
2017-06-25T04:01:23.066Z,74.95
2017-06-25T04:03:52.779Z,74.33
2017-06-25T04:06:23.495Z,73.80
2017-06-25T04:08:53.225Z,74.18
2017-06-25T04:11:22.956Z,74.21
2017-06-25T04:13:52.718Z,73.44
2017-06-25T04:16:22.465Z,73.96
2017-06-25T04:18:52.716Z,74.74
2017-06-25T04:21:22.449Z,74.76
2017-06-25T04:23:52.212Z,74.39
2017-06-25T04:26:21.932Z,73.40
2017-06-25T04:28:53.819Z,73.66
2017-06-25T04:31:23.570Z,73.19
2017-06-25T04:33:54.246Z,72.99
2017-06-25T04:36:23.980Z,73.12
2017-06-25T04:38:53.685Z,72.16
2017-06-25T04:41:23.434Z,72.66
2017-06-25T04:43:53.201Z,71.98
2017-06-25T04:46:22.994Z,71.33
2017-06-25T04:48:52.706Z,70.81
2017-06-25T04:51:22.121Z,70.00
2017-06-25T04:53:51.825Z,69.41
2017-06-25T04:56:21.592Z,71.60
2017-06-25T04:58:51.340Z,69.87
2017-06-25T05:01:21.070Z,70.70
2017-06-25T05:03:50.818Z,71.08
2017-06-25T05:06:20.541Z,70.18
2017-06-25T05:08:51.568Z,70.68
2017-06-25T05:11:21.914Z,70.03
2017-06-25T05:13:52.502Z,69.64
2017-06-25T05:16:22.223Z,69.45
2017-06-25T05:18:51.955Z,69.07
2017-06-25T05:21:21.710Z,68.88
2017-06-25T05:23:51.430Z,68.11
2017-06-25T05:26:21.361Z,67.93
2017-06-25T05:28:51.096Z,68.64
2017-06-25T05:31:20.883Z,69.90
2017-06-25T05:33:52.112Z,68.85
2017-06-25T05:36:24.528Z,68.28
2017-06-25T05:38:56.640Z,68.14
2017-06-25T05:41:27.724Z,66.53
2017-06-25T05:43:58.268Z,66.37
2017-06-25T05:46:30.385Z,67.27
2017-06-25T05:49:01.092Z,67.13
2017-06-25T05:51:32.647Z,66.17
2017-06-25T05:54:03.514Z,65.49
2017-06-25T05:56:34.577Z,64.56
2017-06-25T05:59:05.579Z,63.82
2017-06-25T06:01:41.358Z,63.72
2017-06-25T06:04:11.723Z,63.44
2017-06-25T06:06:41.493Z,62.83
2017-06-25T06:09:12.217Z,62.62
2017-06-25T06:11:43.632Z,62.40
2017-06-25T06:14:13.967Z,62.25
2017-06-25T06:16:45.333Z,62.07
2017-06-25T06:19:18.408Z,62.19
2017-06-25T06:21:50.050Z,61.98
2017-06-25T06:24:22.157Z,62.23
2017-06-25T06:26:53.143Z,62.13
2017-06-25T06:29:24.519Z,61.54
2017-06-25T06:31:55.111Z,61.89
2017-06-25T06:34:26.281Z,61.60
2017-06-25T06:36:58.298Z,61.71
2017-06-25T06:39:28.572Z,61.55
2017-06-25T06:41:58.338Z,60.20
2017-06-25T06:44:28.682Z,60.21
2017-06-25T06:46:59.424Z,59.71
2017-06-25T06:49:30.604Z,59.10
2017-06-25T06:52:02.256Z,58.05
2017-06-25T06:54:32.225Z,58.25
2017-06-25T06:57:04.756Z,58.51
2017-06-25T06:59:35.025Z,57.78
2017-06-25T07:02:05.030Z,57.88
2017-06-25T07:04:36.851Z,57.43
2017-06-25T07:07:07.628Z,56.76
2017-06-25T07:09:38.422Z,56.53
2017-06-25T07:12:11.393Z,56.02
2017-06-25T07:14:43.046Z,55.10
2017-06-25T07:17:13.077Z,55.21
2017-06-25T07:19:43.969Z,55.19
2017-06-25T07:22:14.153Z,53.80
2017-06-25T07:24:51.041Z,54.15
2017-06-25T07:27:21.918Z,53.76
2017-06-25T07:29:52.836Z,52.89
2017-06-25T07:32:24.419Z,52.80
2017-06-25T07:34:56.896Z,51.84
2017-06-25T07:37:28.197Z,51.93
2017-06-25T07:39:59.502Z,51.57
2017-06-25T07:42:31.318Z,51.54
2017-06-25T07:45:03.064Z,50.60
2017-06-25T07:47:35.435Z,50.83
2017-06-25T07:50:07.731Z,50.40
2017-06-25T07:52:37.549Z,50.70
2017-06-25T07:55:08.553Z,50.99
2017-06-25T07:57:40.102Z,50.04
2017-06-25T08:00:11.194Z,49.37
2017-06-25T08:02:43.802Z,49.96
2017-06-25T08:05:15.363Z,51.00
2017-06-25T08:07:45.393Z,50.00
2017-06-25T08:10:16.965Z,49.80
2017-06-25T08:15:41.090Z,51.26
2017-06-25T08:18:11.029Z,50.44
2017-06-25T08:20:42.143Z,50.51
2017-06-25T08:23:13.345Z,49.88
2017-06-25T08:25:43.604Z,49.43
2017-06-25T08:28:14.746Z,48.62
2017-06-25T08:30:45.685Z,49.57
2017-06-25T08:33:15.848Z,50.00
2017-06-25T08:35:47.302Z,51.25
2017-06-25T08:38:18.573Z,50.56
2017-06-25T08:40:48.478Z,50.25
2017-06-25T08:43:19.103Z,50.30
2017-06-25T08:45:51.114Z,50.90
2017-06-25T08:48:22.905Z,50.25
2017-06-25T08:50:53.848Z,49.33
2017-06-25T08:53:26.199Z,48.94
2017-06-25T08:55:56.645Z,49.16
2017-06-25T08:58:28.404Z,48.76
2017-06-25T09:01:00.960Z,49.01
2017-06-25T09:03:31.213Z,48.96
2017-06-25T09:06:02.650Z,48.47
2017-06-25T09:08:34.674Z,47.80
2017-06-25T09:11:07.935Z,48.14
2017-06-25T09:13:40.540Z,48.29
2017-06-25T09:16:10.535Z,49.16
2017-06-25T09:18:41.938Z,49.97
2017-06-25T09:21:15.247Z,50.04
2017-06-25T09:23:47.302Z,50.21
2017-06-25T09:26:19.409Z,49.86
2017-06-25T09:28:53.618Z,50.42
2017-06-25T09:32:30.820Z,49.77
2017-06-25T09:35:01.842Z,49.76
2017-06-25T09:37:34.892Z,50.05
2017-06-25T09:40:09.102Z,50.35
2017-06-25T09:42:43.371Z,50.70
2017-06-25T09:45:14.395Z,50.45
2017-06-25T09:47:46.522Z,50.90
2017-06-25T09:50:20.292Z,50.82
2017-06-25T09:52:53.999Z,51.09
2017-06-25T09:55:25.053Z,50.32
2017-06-25T09:57:55.797Z,51.10
2017-06-25T10:00:26.520Z,50.72
2017-06-25T10:02:58.658Z,51.31
2017-06-25T10:05:31.095Z,51.94
2017-06-25T10:08:01.994Z,52.11
2017-06-25T10:10:31.800Z,52.61
2017-06-25T10:13:03.673Z,52.53
2017-06-25T10:15:36.420Z,53.17
2017-06-25T10:18:06.454Z,53.87
2017-06-25T10:20:36.630Z,53.75
2017-06-25T10:23:09.977Z,53.21
2017-06-25T10:25:39.648Z,52.60
2017-06-25T10:28:09.568Z,52.21
2017-06-25T10:30:39.385Z,52.32
2017-06-25T10:33:16.281Z,52.73
2017-06-25T10:35:49.733Z,52.15
2017-06-25T10:38:20.058Z,52.59
2017-06-25T10:40:51.023Z,52.79
2017-06-25T10:43:20.745Z,52.11
2017-06-25T10:45:50.532Z,51.97
2017-06-25T10:48:20.288Z,51.76
2017-06-25T10:50:50.097Z,50.98
2017-06-25T10:53:19.818Z,51.78
2017-06-25T10:55:49.506Z,50.32
2017-06-25T10:58:19.266Z,50.46
2017-06-25T11:00:49.052Z,51.22
2017-06-25T11:03:18.861Z,51.44
2017-06-25T11:05:48.617Z,51.58
2017-06-25T11:08:18.385Z,51.08
2017-06-25T11:10:48.141Z,51.34
2017-06-25T11:13:17.929Z,51.30
2017-06-25T11:15:47.649Z,50.93
2017-06-25T11:18:17.490Z,50.84
2017-06-25T11:20:46.984Z,50.32
2017-06-25T11:23:16.790Z,50.06
2017-06-25T11:25:46.469Z,49.77
2017-06-25T11:28:16.262Z,49.77
2017-06-25T11:30:46.033Z,50.20
2017-06-25T11:33:15.357Z,49.86
2017-06-25T11:35:45.157Z,49.97
2017-06-25T11:38:15.142Z,49.48
2017-06-25T11:40:44.882Z,48.67
2017-06-25T11:43:14.561Z,48.83
2017-06-25T11:45:44.314Z,48.82
2017-06-25T11:48:14.023Z,48.14
2017-06-25T11:50:43.474Z,48.26
2017-06-25T11:53:13.848Z,48.44
2017-06-25T11:55:44.142Z,48.46
2017-06-25T11:58:13.954Z,48.26
2017-06-25T12:00:43.726Z,48.44
2017-06-25T12:03:13.517Z,48.10
2017-06-25T12:05:43.254Z,48.56
2017-06-25T12:08:12.926Z,49.21
2017-06-25T12:10:43.362Z,48.93
2017-06-25T12:13:13.111Z,48.77
2017-06-25T12:15:42.965Z,48.89
2017-06-25T12:18:12.773Z,48.38
2017-06-25T12:20:42.530Z,48.58
2017-06-25T12:23:12.291Z,49.00
2017-06-25T12:25:42.082Z,47.30
2017-06-25T12:28:11.766Z,47.16
2017-06-25T12:30:41.533Z,47.73
2017-06-25T12:33:11.318Z,46.83
2017-06-25T12:35:41.054Z,47.08
2017-06-25T12:38:10.749Z,47.31
2017-06-25T12:40:40.413Z,47.22
2017-06-25T12:43:10.209Z,46.59
2017-06-25T12:45:41.517Z,46.90
2017-06-25T12:48:16.593Z,47.06
2017-06-25T12:50:51.100Z,47.15
2017-06-25T12:53:22.118Z,47.27
2017-06-25T12:55:52.583Z,47.13
2017-06-25T12:58:22.989Z,47.09
2017-06-25T13:00:53.828Z,46.48
2017-06-25T13:03:25.138Z,45.51
2017-06-25T13:05:55.841Z,45.38
2017-06-25T13:08:27.866Z,46.18
2017-06-25T13:10:59.058Z,46.27
2017-06-25T13:13:30.959Z,46.87
2017-06-25T13:16:03.029Z,47.09
2017-06-25T13:18:33.685Z,46.92
2017-06-25T13:21:07.308Z,47.07
2017-06-25T13:23:40.368Z,47.73
2017-06-25T13:26:12.902Z,48.28
2017-06-25T13:28:45.845Z,48.44
2017-06-25T13:31:19.127Z,48.38
2017-06-25T13:33:50.239Z,49.17
2017-06-25T13:36:21.194Z,49.41
2017-06-25T13:38:52.037Z,49.71
2017-06-25T13:41:22.700Z,50.06
2017-06-25T13:43:54.280Z,50.42
2017-06-25T13:46:25.366Z,51.23
2017-06-25T13:48:57.034Z,53.84
2017-06-25T13:51:28.200Z,55.99
2017-06-25T13:54:00.522Z,57.40
2017-06-25T13:56:31.782Z,58.02
2017-06-25T13:59:03.482Z,58.37
2017-06-25T14:01:39.027Z,59.28
2017-06-25T14:04:10.024Z,59.39
2017-06-25T14:06:39.791Z,60.12
2017-06-25T14:09:09.838Z,59.97
2017-06-25T14:11:40.450Z,59.70
2017-06-25T14:14:10.154Z,59.87
2017-06-25T14:16:39.918Z,59.90
2017-06-25T14:19:10.506Z,59.51
2017-06-25T14:21:40.286Z,58.53
2017-06-25T14:24:10.061Z,57.86
2017-06-25T14:26:39.873Z,58.52
2017-06-25T14:29:09.590Z,58.12
2017-06-25T14:31:39.261Z,58.05
2017-06-25T14:34:08.993Z,58.21
2017-06-25T14:36:38.705Z,58.13
2017-06-25T14:39:08.450Z,58.14
2017-06-25T14:41:38.749Z,57.88
2017-06-25T14:44:09.415Z,56.78
2017-06-25T14:46:39.258Z,56.02
2017-06-25T14:49:09.005Z,55.88
2017-06-25T14:51:38.728Z,56.15
2017-06-25T14:54:08.656Z,55.24
2017-06-25T14:56:38.601Z,56.36
2017-06-25T14:59:08.459Z,56.84
2017-06-25T15:01:38.221Z,55.89
2017-06-25T15:04:09.830Z,54.66
2017-06-25T15:06:43.072Z,52.33
2017-06-25T15:09:14.062Z,51.91
2017-06-25T15:11:43.730Z,52.21
2017-06-25T15:14:15.308Z,52.33
2017-06-25T15:16:45.774Z,53.21
2017-06-25T15:19:16.122Z,53.27
2017-06-25T15:21:48.401Z,53.20
2017-06-25T15:24:23.982Z,53.97
2017-06-25T15:26:59.279Z,53.60
2017-06-25T15:29:31.233Z,53.36
2017-06-25T15:32:02.466Z,53.41
2017-06-25T15:34:33.766Z,53.60
2017-06-25T15:37:03.994Z,54.50
2017-06-25T15:39:35.263Z,54.34
2017-06-25T15:42:07.178Z,54.68
2017-06-25T15:44:39.446Z,55.09
2017-06-25T15:47:09.722Z,55.00
2017-06-25T15:49:40.417Z,54.66
2017-06-25T15:52:10.882Z,54.91
2017-06-25T15:54:40.725Z,54.75
2017-06-25T15:57:10.494Z,54.86
2017-06-25T15:59:42.185Z,54.47
2017-06-25T16:02:13.644Z,55.02
2017-06-25T16:04:45.432Z,55.05
2017-06-25T16:07:18.641Z,54.75
2017-06-25T16:09:49.975Z,54.97
2017-06-25T16:12:20.514Z,55.81
2017-06-25T16:14:51.161Z,55.22
2017-06-25T16:17:22.854Z,55.87
2017-06-25T16:19:55.055Z,55.73
2017-06-25T16:22:26.273Z,55.86
2017-06-25T16:24:56.258Z,56.40
2017-06-25T16:27:26.603Z,56.24
2017-06-25T16:29:59.260Z,57.75
2017-06-25T16:32:29.266Z,60.81
2017-06-25T16:34:59.541Z,64.52
2017-06-25T16:37:29.948Z,68.65
2017-06-25T16:40:02.500Z,70.10
2017-06-25T16:42:34.649Z,71.58
2017-06-25T16:45:07.346Z,73.22
2017-06-25T16:47:46.538Z,72.86
2017-06-25T16:50:19.743Z,74.15
2017-06-25T16:52:50.313Z,73.37
2017-06-25T16:55:20.589Z,75.17
2017-06-25T16:57:50.347Z,75.86
2017-06-25T17:00:22.159Z,75.85
2017-06-25T17:02:51.905Z,77.35
2017-06-25T17:05:22.465Z,75.77
2017-06-25T17:07:52.798Z,78.13
2017-06-25T17:10:23.516Z,79.15
2017-06-25T17:12:55.711Z,75.74
2017-06-25T17:15:25.577Z,76.85
2017-06-25T17:17:56.848Z,78.00
2017-06-25T17:20:28.799Z,78.65
2017-06-25T17:23:00.149Z,77.08
2017-06-25T17:25:32.343Z,77.78
2017-06-25T17:28:03.877Z,75.07
2017-06-25T17:30:34.964Z,76.01
2017-06-25T17:33:05.764Z,75.21
2017-06-25T17:35:36.642Z,78.01
2017-06-25T17:38:07.174Z,80.56
2017-06-25T17:40:38.834Z,79.33
2017-06-25T17:43:11.614Z,77.87
2017-06-25T17:45:43.007Z,78.57
2017-06-25T17:48:12.783Z,78.58
2017-06-25T17:50:42.968Z,80.10
2017-06-25T17:53:14.535Z,80.10
2017-06-25T17:55:45.115Z,81.18
2017-06-25T17:58:16.522Z,80.98
2017-06-25T18:00:47.869Z,80.70
2017-06-25T18:03:18.020Z,81.73
2017-06-25T18:05:47.854Z,82.15
2017-06-25T18:08:19.524Z,82.41
2017-06-25T18:10:51.046Z,82.02
2017-06-25T18:13:21.929Z,81.58
2017-06-25T18:15:51.866Z,82.38
2017-06-25T18:18:21.990Z,80.45
2017-06-25T18:20:51.774Z,80.95
2017-06-25T18:23:21.537Z,81.28
2017-06-25T18:25:51.994Z,80.98
2017-06-25T18:28:21.749Z,80.95
2017-06-25T18:30:52.401Z,81.09
2017-06-25T18:33:22.159Z,81.83
2017-06-25T18:35:51.903Z,82.63
2017-06-25T18:38:22.531Z,82.78
2017-06-25T18:40:52.428Z,82.73
2017-06-25T18:43:22.158Z,82.76
2017-06-25T18:45:53.087Z,82.67
2017-06-25T18:48:26.400Z,82.90
2017-06-25T18:50:58.859Z,82.79
2017-06-25T18:53:32.572Z,82.77
2017-06-25T18:56:07.259Z,83.03
2017-06-25T18:58:38.762Z,82.70
2017-06-25T19:01:09.798Z,83.24
2017-06-25T19:03:41.120Z,83.16
2017-06-25T19:06:13.039Z,83.31
2017-06-25T19:08:46.153Z,82.96
2017-06-25T19:11:18.771Z,84.12
2017-06-25T19:13:51.340Z,83.67
2017-06-25T19:16:25.806Z,81.97
2017-06-25T19:18:58.450Z,80.62
2017-06-25T19:21:31.697Z,81.58
2017-06-25T19:24:04.033Z,81.03
2017-06-25T19:26:35.955Z,81.51
2017-06-25T19:29:08.589Z,80.87
2017-06-25T19:31:42.735Z,80.76
2017-06-25T19:34:14.538Z,81.43
2017-06-25T19:36:45.468Z,81.65
2017-06-25T19:39:17.638Z,79.82
2017-06-25T19:41:50.231Z,80.12
2017-06-25T19:44:21.782Z,77.17
2017-06-25T19:46:55.028Z,76.92
2017-06-25T19:49:27.318Z,77.32
2017-06-25T19:51:58.089Z,77.47
2017-06-25T19:54:31.476Z,76.20
2017-06-25T19:57:03.406Z,75.33
2017-06-25T19:59:35.974Z,74.38
2017-06-25T20:02:07.667Z,74.50
2017-06-25T20:04:40.342Z,74.93
2017-06-25T20:07:10.801Z,75.77
2017-06-25T20:09:43.568Z,75.83
2017-06-25T20:12:15.518Z,76.17
2017-06-25T20:14:47.472Z,75.23
2017-06-25T20:17:19.397Z,74.71
2017-06-25T20:19:51.352Z,74.93
2017-06-25T20:22:23.896Z,73.92
2017-06-25T20:24:56.370Z,74.83
2017-06-25T20:27:28.159Z,75.31
2017-06-25T20:29:58.641Z,74.67
2017-06-25T20:32:29.371Z,75.50
2017-06-25T20:35:00.958Z,75.58
2017-06-25T20:37:32.447Z,73.97
2017-06-25T20:40:06.829Z,75.17
2017-06-25T20:42:38.354Z,76.17
2017-06-25T20:45:08.149Z,75.77
2017-06-25T20:47:38.194Z,76.03
2017-06-25T20:50:08.659Z,75.26
2017-06-25T20:52:38.397Z,75.92
2017-06-25T20:55:08.261Z,75.57
2017-06-25T20:57:38.020Z,75.95
2017-06-25T21:00:07.822Z,76.49
2017-06-25T21:02:38.188Z,76.54
2017-06-25T21:05:08.045Z,78.45
2017-06-25T21:07:37.810Z,77.83
2017-06-25T21:10:07.546Z,77.57
2017-06-25T21:12:37.969Z,78.42
2017-06-25T21:15:08.292Z,78.66
2017-06-25T21:17:38.668Z,78.19
2017-06-25T21:20:08.431Z,78.05
2017-06-25T21:22:38.277Z,78.17
2017-06-25T21:25:08.955Z,78.51
2017-06-25T21:27:39.301Z,78.28
2017-06-25T21:30:08.989Z,78.12
2017-06-25T21:32:38.714Z,77.12
2017-06-25T21:35:08.465Z,77.38
2017-06-25T21:37:38.249Z,77.24
2017-06-25T21:40:13.923Z,77.96
2017-06-25T21:42:47.834Z,78.51
2017-06-25T21:45:18.442Z,79.67
2017-06-25T21:47:48.163Z,78.94
2017-06-25T21:50:18.061Z,79.41
2017-06-25T21:52:47.833Z,79.62
2017-06-25T21:55:17.598Z,80.38
2017-06-25T21:57:47.908Z,80.00
2017-06-25T22:00:17.657Z,80.78
2017-06-25T22:02:47.409Z,78.72
2017-06-25T22:05:17.161Z,78.85
2017-06-25T22:07:46.868Z,78.76
2017-06-25T22:10:16.638Z,78.48
2017-06-25T22:12:46.436Z,79.18
2017-06-25T22:15:16.308Z,79.40
2017-06-25T22:17:46.080Z,78.55
2017-06-25T22:20:15.866Z,79.76
2017-06-25T22:22:45.573Z,79.73
2017-06-25T22:25:15.249Z,79.63
2017-06-25T22:27:45.822Z,78.99
2017-06-25T22:30:15.525Z,79.41
2017-06-25T22:32:45.330Z,79.60
2017-06-25T22:35:15.111Z,79.88
2017-06-25T22:37:45.827Z,79.24
2017-06-25T22:40:15.609Z,79.52
2017-06-25T22:42:48.961Z,79.51
2017-06-25T22:45:20.102Z,78.83
2017-06-25T22:47:50.461Z,79.13
2017-06-25T22:50:20.732Z,79.38
2017-06-25T22:52:50.465Z,79.62
2017-06-25T22:55:20.291Z,80.00
2017-06-25T22:57:50.596Z,80.94
2017-06-25T23:00:22.389Z,81.78
2017-06-25T23:02:54.375Z,82.37
2017-06-25T23:05:25.148Z,80.97
2017-06-25T23:07:54.959Z,80.50
2017-06-25T23:10:24.625Z,80.83
2017-06-25T23:12:54.443Z,80.18
2017-06-25T23:15:24.211Z,79.74
2017-06-25T23:17:54.041Z,80.80
2017-06-25T23:20:23.849Z,80.32
2017-06-25T23:22:53.597Z,80.42
2017-06-25T23:25:23.972Z,80.29
2017-06-25T23:27:53.714Z,79.70
2017-06-25T23:30:23.518Z,79.95
2017-06-25T23:32:54.238Z,79.82
2017-06-25T23:35:24.691Z,79.15
2017-06-25T23:37:54.555Z,79.46
2017-06-25T23:40:24.854Z,79.18
2017-06-25T23:42:54.674Z,79.34
2017-06-25T23:45:24.453Z,79.89
2017-06-25T23:47:54.214Z,78.58
2017-06-25T23:50:23.977Z,78.17
2017-06-25T23:52:53.709Z,79.67
2017-06-25T23:55:23.551Z,81.20
2017-06-25T23:57:53.317Z,81.79
